createdAt,value
2022-08-16T00:01:16.018Z,9.35
2022-08-16T00:03:42.978Z,11.57
2022-08-16T00:06:10.045Z,9.18
2022-08-16T00:08:38.174Z,8.90
2022-08-16T00:11:15.812Z,14.15
2022-08-16T00:13:53.322Z,14.02
2022-08-16T00:17:06.637Z,11.50
2022-08-16T00:19:22.909Z,8.68
2022-08-16T00:21:53.164Z,9.88
2022-08-16T00:24:32.166Z,10.15
2022-08-16T00:27:01.092Z,9.93
2022-08-16T00:29:29.888Z,8.55
2022-08-16T00:32:01.446Z,11.77
2022-08-16T00:34:43.195Z,8.70
2022-08-16T00:37:21.061Z,7.35
2022-08-16T00:39:57.138Z,8.68
2022-08-16T00:42:29.732Z,9.90
2022-08-16T00:45:10.221Z,12.68
2022-08-16T00:47:49.292Z,7.40
2022-08-16T00:50:20.680Z,8.60
2022-08-16T00:52:51.307Z,9.07
2022-08-16T00:55:22.304Z,8.38
2022-08-16T00:58:00.156Z,7.97
2022-08-16T01:00:33.418Z,10.73
2022-08-16T01:03:11.732Z,8.13
2022-08-16T01:05:40.452Z,8.98
2022-08-16T01:08:35.142Z,9.90
2022-08-16T01:11:00.086Z,9.95
2022-08-16T01:13:33.066Z,10.18
2022-08-16T01:16:10.278Z,9.50
2022-08-16T01:18:45.669Z,13.75
2022-08-16T01:21:50.677Z,15.43
2022-08-16T01:24:52.687Z,8.20
2022-08-16T01:27:27.704Z,8.63
2022-08-16T01:30:26.509Z,8.52
2022-08-16T01:33:02.832Z,15.98
2022-08-16T01:35:56.654Z,7.90
2022-08-16T01:38:44.957Z,14.48
2022-08-16T01:41:30.459Z,8.52
2022-08-16T01:44:01.014Z,8.68
2022-08-16T01:46:45.203Z,8.57
2022-08-16T01:49:18.643Z,8.95
2022-08-16T01:51:55.064Z,8.13
2022-08-16T01:54:30.702Z,10.85
2022-08-16T01:56:59.590Z,7.95
2022-08-16T01:59:26.548Z,10.02
2022-08-16T02:02:00.227Z,8.88
2022-08-16T02:04:48.816Z,11.98
2022-08-16T02:07:18.419Z,9.45
2022-08-16T02:09:58.648Z,11.90
2022-08-16T02:12:39.881Z,10.70
2022-08-16T02:15:25.372Z,13.23
2022-08-16T02:17:58.300Z,11.80
2022-08-16T02:20:28.087Z,11.43
2022-08-16T02:23:05.591Z,8.43
2022-08-16T02:25:51.884Z,14.77
2022-08-16T02:28:23.696Z,10.25
2022-08-16T02:30:52.290Z,9.77
2022-08-16T02:33:24.449Z,11.00
2022-08-16T02:35:55.151Z,9.57
2022-08-16T02:38:27.400Z,8.40
2022-08-16T02:40:56.526Z,11.90
2022-08-16T02:43:29.762Z,16.40
2022-08-16T02:46:01.266Z,10.30
2022-08-16T02:48:31.123Z,10.23
2022-08-16T02:51:06.155Z,10.75
2022-08-16T02:53:35.485Z,11.93
2022-08-16T02:56:02.472Z,11.55
2022-08-16T02:58:29.401Z,9.13
2022-08-16T03:00:57.711Z,10.50
2022-08-16T03:03:26.713Z,11.35
2022-08-16T03:06:39.634Z,10.98
2022-08-16T03:09:01.892Z,9.40
2022-08-16T03:11:28.720Z,12.57
2022-08-16T03:14:02.628Z,9.77
2022-08-16T03:16:38.470Z,14.23
2022-08-16T03:19:09.840Z,10.82
2022-08-16T03:21:38.707Z,10.65
2022-08-16T03:24:28.793Z,13.25
2022-08-16T03:26:57.967Z,11.48
2022-08-16T03:29:30.400Z,10.75
2022-08-16T03:32:01.968Z,9.80
2022-08-16T03:34:30.538Z,10.25
2022-08-16T03:36:58.234Z,12.45
2022-08-16T03:39:25.159Z,12.27
2022-08-16T03:41:59.897Z,12.70
2022-08-16T03:44:44.592Z,10.80
2022-08-16T03:47:19.042Z,8.90
2022-08-16T03:49:51.395Z,10.50
2022-08-16T03:52:20.592Z,9.13
2022-08-16T03:54:58.181Z,13.20
2022-08-16T03:57:32.145Z,14.20
2022-08-16T04:00:35.350Z,14.10
2022-08-16T04:03:08.843Z,10.50
2022-08-16T04:05:41.053Z,9.57
2022-08-16T04:08:23.071Z,9.20
2022-08-16T04:10:54.249Z,11.82
2022-08-16T04:14:00.468Z,10.13
2022-08-16T04:16:26.397Z,11.50
2022-08-16T04:19:01.383Z,20.73
2022-08-16T04:21:33.505Z,13.07
2022-08-16T04:24:02.789Z,12.02
2022-08-16T04:26:32.187Z,10.07
2022-08-16T04:29:16.877Z,12.35
2022-08-16T04:31:56.373Z,10.60
2022-08-16T04:36:56.631Z,8.93
2022-08-16T04:39:24.464Z,11.80
2022-08-16T04:42:11.258Z,10.95
2022-08-16T04:44:53.791Z,13.18
2022-08-16T04:47:24.928Z,15.30
2022-08-16T04:49:52.785Z,10.48
2022-08-16T04:52:32.650Z,14.15
2022-08-16T04:55:06.019Z,10.63
2022-08-16T04:57:33.131Z,14.75
2022-08-16T05:00:30.868Z,9.57
2022-08-16T05:02:55.834Z,10.35
2022-08-16T05:05:23.555Z,20.90
2022-08-16T05:07:58.228Z,13.27
2022-08-16T05:10:29.450Z,11.18
2022-08-16T05:12:58.264Z,12.75
2022-08-16T05:15:26.201Z,14.95
2022-08-16T05:17:58.507Z,9.75
2022-08-16T05:20:39.066Z,9.70
2022-08-16T05:23:13.667Z,9.20
2022-08-16T05:25:48.458Z,7.97
2022-08-16T05:28:18.545Z,9.93
2022-08-16T05:30:45.984Z,7.80
2022-08-16T05:33:18.085Z,7.28
2022-08-16T05:35:55.218Z,6.60
2022-08-16T05:38:33.115Z,8.70
2022-08-16T05:41:07.050Z,7.28
2022-08-16T05:43:43.320Z,9.13
2022-08-16T05:46:29.747Z,10.95
2022-08-16T05:49:05.424Z,9.80
2022-08-16T05:51:38.160Z,9.07
2022-08-16T05:54:07.893Z,8.98
2022-08-16T05:56:37.524Z,15.95
2022-08-16T05:59:06.102Z,7.28
2022-08-16T06:01:37.836Z,5.68
2022-08-16T06:04:13.518Z,8.88
2022-08-16T06:06:56.751Z,7.03
2022-08-16T06:09:42.972Z,5.78
2022-08-16T06:12:27.392Z,8.75
2022-08-16T06:14:59.203Z,8.85
2022-08-16T06:17:42.660Z,12.07
2022-08-16T06:20:18.426Z,7.45
2022-08-16T06:23:03.034Z,6.28
2022-08-16T06:25:36.643Z,5.95
2022-08-16T06:28:17.075Z,7.63
2022-08-16T06:30:58.595Z,5.20
2022-08-16T06:33:25.414Z,5.03
2022-08-16T06:35:54.940Z,8.82
2022-08-16T06:38:32.303Z,7.28
2022-08-16T06:41:12.375Z,9.93
2022-08-16T06:43:41.646Z,6.47
2022-08-16T06:46:31.975Z,7.97
2022-08-16T06:49:05.261Z,7.47
2022-08-16T06:51:48.365Z,6.03
2022-08-16T06:54:16.744Z,8.73
2022-08-16T06:56:43.710Z,5.43
2022-08-16T06:59:10.875Z,8.38
2022-08-16T07:01:43.135Z,7.03
2022-08-16T07:04:13.316Z,6.60
2022-08-16T07:06:59.665Z,5.50
2022-08-16T07:09:29.760Z,6.70
2022-08-16T07:12:05.338Z,6.50
2022-08-16T07:14:33.378Z,6.63
2022-08-16T07:17:00.833Z,8.60
2022-08-16T07:20:01.459Z,9.45
2022-08-16T07:22:37.907Z,4.78
2022-08-16T07:25:11.769Z,4.88
2022-08-16T07:27:40.011Z,4.65
2022-08-16T07:30:38.456Z,9.40
2022-08-16T07:32:58.658Z,9.40
2022-08-16T07:35:26.086Z,10.02
2022-08-16T07:37:53.342Z,6.70
2022-08-16T07:40:36.998Z,4.47
2022-08-16T07:43:07.457Z,5.95
2022-08-16T07:45:34.502Z,7.65
2022-08-16T07:48:11.443Z,5.32
2022-08-16T07:50:56.186Z,11.95
2022-08-16T07:53:31.174Z,3.88
2022-08-16T07:56:04.395Z,4.80
2022-08-16T07:58:34.993Z,3.55
2022-08-16T08:01:10.979Z,8.75
2022-08-16T08:03:47.613Z,4.50
2022-08-16T08:06:18.262Z,3.72
2022-08-16T08:08:51.045Z,3.45
2022-08-16T08:11:19.868Z,8.82
2022-08-16T08:13:49.418Z,3.10
2022-08-16T08:16:19.604Z,5.72
2022-08-16T08:18:50.556Z,5.75
2022-08-16T08:21:26.183Z,4.60
2022-08-16T08:23:54.767Z,4.20
2022-08-16T08:26:22.114Z,3.10
2022-08-16T08:28:51.569Z,3.10
2022-08-16T08:31:19.059Z,3.22
2022-08-16T08:33:47.567Z,3.53
2022-08-16T08:36:33.040Z,4.38
2022-08-16T08:39:00.587Z,3.97
2022-08-16T08:41:28.872Z,3.78
2022-08-16T08:43:56.976Z,3.70
2022-08-16T08:46:25.461Z,9.75
2022-08-16T08:48:59.166Z,5.40
2022-08-16T08:51:35.529Z,6.50
2022-08-16T08:54:06.757Z,5.72
2022-08-16T08:56:37.169Z,14.38
2022-08-16T08:59:13.594Z,5.18
2022-08-16T09:01:57.189Z,3.08
2022-08-16T09:04:27.026Z,3.38
2022-08-16T09:06:55.266Z,2.78
2022-08-16T09:09:23.424Z,3.38
2022-08-16T09:12:04.206Z,8.43
2022-08-16T09:14:35.426Z,2.80
2022-08-16T09:17:11.905Z,4.70
2022-08-16T09:19:52.640Z,4.32
2022-08-16T09:22:23.886Z,3.40
2022-08-16T09:24:52.464Z,4.85
2022-08-16T09:27:26.466Z,5.70
2022-08-16T09:30:00.487Z,9.88
2022-08-16T09:32:31.287Z,6.07
2022-08-16T09:35:01.359Z,3.60
2022-08-16T09:37:30.500Z,4.60
2022-08-16T09:40:31.839Z,4.47
2022-08-16T09:42:56.124Z,3.08
2022-08-16T09:45:27.892Z,2.45
2022-08-16T09:47:58.174Z,7.43
2022-08-16T09:50:36.945Z,2.60
2022-08-16T09:53:15.580Z,4.47
2022-08-16T09:55:49.326Z,12.45
2022-08-16T09:58:37.859Z,4.57
2022-08-16T10:01:08.455Z,6.38
2022-08-16T10:03:37.950Z,4.47
2022-08-16T10:06:26.197Z,4.78
2022-08-16T10:09:05.584Z,2.65
2022-08-16T10:11:56.099Z,3.15
2022-08-16T10:14:38.631Z,4.90
2022-08-16T10:17:06.167Z,2.33
2022-08-16T10:19:33.647Z,8.05
2022-08-16T10:22:04.955Z,3.28
2022-08-16T10:24:33.384Z,4.80
2022-08-16T10:27:26.179Z,4.80
2022-08-16T10:29:59.544Z,8.75
2022-08-16T10:32:30.510Z,6.18
2022-08-16T10:34:58.073Z,3.40
2022-08-16T10:37:36.061Z,5.93
2022-08-16T10:40:28.616Z,5.65
2022-08-16T10:42:56.076Z,3.50
2022-08-16T10:45:23.053Z,2.60
2022-08-16T10:48:02.845Z,4.43
2022-08-16T10:50:32.517Z,2.30
2022-08-16T10:53:00.507Z,4.95
2022-08-16T10:55:40.848Z,3.28
2022-08-16T10:58:16.926Z,2.10
2022-08-16T11:00:46.309Z,3.28
2022-08-16T11:06:06.678Z,2.58
2022-08-16T11:08:40.794Z,8.73
2022-08-16T11:11:19.111Z,3.42
2022-08-16T11:14:11.476Z,2.13
2022-08-16T11:19:22.919Z,8.48
2022-08-16T11:24:43.277Z,2.13
2022-08-16T11:27:23.337Z,3.72
2022-08-16T11:29:55.703Z,2.33
2022-08-16T11:32:29.820Z,3.53
2022-08-16T11:35:10.588Z,2.50
2022-08-16T11:40:32.869Z,7.18
2022-08-16T11:43:04.128Z,4.50
2022-08-16T11:45:33.653Z,3.85
2022-08-16T11:48:03.797Z,2.45
2022-08-16T11:50:33.404Z,7.93
2022-08-16T11:53:08.287Z,4.03
2022-08-16T11:55:38.083Z,3.63
2022-08-16T11:58:08.328Z,5.85
2022-08-16T12:00:51.285Z,3.47
2022-08-16T12:03:29.678Z,3.42
2022-08-16T12:06:25.448Z,5.10
2022-08-16T12:09:01.066Z,3.30
2022-08-16T12:11:31.585Z,2.53
2022-08-16T12:14:04.209Z,2.88
2022-08-16T12:16:34.321Z,4.50
2022-08-16T12:19:04.892Z,2.30
2022-08-16T12:21:57.814Z,2.85
2022-08-16T12:24:19.974Z,4.10
2022-08-16T12:26:46.793Z,2.33
2022-08-16T12:29:13.724Z,5.90
2022-08-16T12:32:01.555Z,2.78
2022-08-16T12:34:29.432Z,3.35
2022-08-16T12:36:56.505Z,3.25
2022-08-16T12:39:23.714Z,3.25
2022-08-16T12:41:57.637Z,2.33
2022-08-16T12:44:26.539Z,4.22
2022-08-16T12:47:17.343Z,4.95
2022-08-16T12:49:44.191Z,3.38
2022-08-16T12:52:32.633Z,2.40
2022-08-16T12:54:59.645Z,3.95
2022-08-16T12:57:36.158Z,3.70
2022-08-16T13:00:26.403Z,3.80
2022-08-16T13:03:02.835Z,2.33
2022-08-16T13:08:03.253Z,3.17
2022-08-16T13:10:36.855Z,3.22
2022-08-16T13:13:06.547Z,3.70
2022-08-16T13:15:55.770Z,4.00
2022-08-16T13:18:33.504Z,1.80
2022-08-16T13:21:03.004Z,2.65
2022-08-16T13:23:30.697Z,2.72
2022-08-16T13:25:58.064Z,3.67
2022-08-16T13:28:24.973Z,5.03
2022-08-16T13:30:55.397Z,2.90
2022-08-16T13:33:30.553Z,7.95
2022-08-16T13:36:00.725Z,2.47
2022-08-16T13:38:32.672Z,3.20
2022-08-16T13:41:08.956Z,2.00
2022-08-16T13:43:38.123Z,2.80
2022-08-16T13:46:06.567Z,2.28
2022-08-16T13:48:43.072Z,3.80
2022-08-16T13:51:16.605Z,3.97
2022-08-16T13:53:45.876Z,3.00
2022-08-16T13:56:24.932Z,2.85
2022-08-16T13:58:54.804Z,3.95
2022-08-16T14:01:22.378Z,4.00
2022-08-16T14:03:50.209Z,3.40
2022-08-16T14:06:21.821Z,2.05
2022-08-16T14:08:50.227Z,2.88
2022-08-16T14:11:26.468Z,3.83
2022-08-16T14:13:56.141Z,2.17
2022-08-16T14:16:33.962Z,3.30
2022-08-16T14:19:02.181Z,2.10
2022-08-16T14:21:35.242Z,5.68
2022-08-16T14:24:22.171Z,4.00
2022-08-16T14:26:52.646Z,5.00
2022-08-16T14:29:20.394Z,4.78
2022-08-16T14:31:53.474Z,3.83
2022-08-16T14:34:21.549Z,1.90
2022-08-16T14:36:53.229Z,2.75
2022-08-16T14:39:22.046Z,4.45
2022-08-16T14:41:53.775Z,3.53
2022-08-16T14:44:23.668Z,2.25
2022-08-16T14:46:52.969Z,5.57
2022-08-16T14:49:20.158Z,3.63
2022-08-16T14:51:48.660Z,3.92
2022-08-16T14:54:15.709Z,2.63
2022-08-16T14:56:46.888Z,3.58
2022-08-16T14:59:22.656Z,3.00
2022-08-16T15:01:57.592Z,2.67
2022-08-16T15:04:40.551Z,2.53
2022-08-16T15:07:16.643Z,2.53
2022-08-16T15:10:01.064Z,2.60
2022-08-16T15:12:31.077Z,3.75
2022-08-16T15:15:01.736Z,3.30
2022-08-16T15:17:39.432Z,4.78
2022-08-16T15:20:08.666Z,2.33
2022-08-16T15:22:43.534Z,3.58
2022-08-16T15:25:29.734Z,2.55
2022-08-16T15:27:58.499Z,3.97
2022-08-16T15:30:56.868Z,2.45
2022-08-16T15:33:19.567Z,4.07
2022-08-16T15:35:50.506Z,2.90
2022-08-16T15:38:43.524Z,3.65
2022-08-16T15:41:04.654Z,4.40
2022-08-16T15:43:38.872Z,4.03
2022-08-16T15:46:35.521Z,4.80
2022-08-16T15:49:15.570Z,2.92
2022-08-16T15:51:45.465Z,2.13
2022-08-16T15:54:20.901Z,3.35
2022-08-16T15:57:03.016Z,4.43
2022-08-16T15:59:49.208Z,4.05
2022-08-16T16:02:29.695Z,3.47
2022-08-16T16:05:01.910Z,3.78
2022-08-16T16:07:30.841Z,4.25
2022-08-16T16:10:00.255Z,2.60
2022-08-16T16:12:52.896Z,2.97
2022-08-16T16:15:18.759Z,2.67
2022-08-16T16:17:50.915Z,2.88
2022-08-16T16:20:21.563Z,6.43
2022-08-16T16:22:49.281Z,3.03
2022-08-16T16:25:18.097Z,4.22
2022-08-16T16:27:45.613Z,2.65
2022-08-16T16:30:33.513Z,3.33
2022-08-16T16:33:01.440Z,2.45
2022-08-16T16:35:32.664Z,4.15
2022-08-16T16:38:00.155Z,2.20
2022-08-16T16:40:32.598Z,2.60
2022-08-16T16:43:00.886Z,2.33
2022-08-16T16:45:33.345Z,3.45
2022-08-16T16:48:12.796Z,2.67
2022-08-16T16:50:45.224Z,3.92
2022-08-16T16:53:17.688Z,2.33
2022-08-16T16:55:52.227Z,5.25
2022-08-16T16:58:43.435Z,2.28
2022-08-16T17:01:20.973Z,2.47
2022-08-16T17:04:13.209Z,3.85
2022-08-16T17:09:24.689Z,1.98
2022-08-16T17:11:55.481Z,4.22
2022-08-16T17:14:32.668Z,2.05
2022-08-16T17:19:54.271Z,9.07
2022-08-16T17:22:23.006Z,2.20
2022-08-16T17:24:52.681Z,4.30
2022-08-16T17:27:32.161Z,3.33
2022-08-16T17:30:15.606Z,4.40
2022-08-16T17:32:54.473Z,1.83
2022-08-16T17:35:33.705Z,2.80
2022-08-16T17:38:06.090Z,1.92
2022-08-16T17:39:26.422Z,2.88
2022-08-16T17:40:47.213Z,3.00
2022-08-16T17:43:43.886Z,2.20
2022-08-16T17:46:41.572Z,3.83
2022-08-16T17:49:00.850Z,2.45
2022-08-16T17:51:28.485Z,2.85
2022-08-16T17:53:55.802Z,4.05
2022-08-16T17:56:22.684Z,2.20
2022-08-16T17:58:49.528Z,2.35
2022-08-16T18:01:16.775Z,6.07
2022-08-16T18:04:07.283Z,3.47
2022-08-16T18:06:30.764Z,2.40
2022-08-16T18:09:02.674Z,3.17
2022-08-16T18:11:33.738Z,3.75
2022-08-16T18:14:00.610Z,2.88
2022-08-16T18:16:27.614Z,4.00
2022-08-16T18:18:54.414Z,2.33
2022-08-16T18:21:40.554Z,7.15
2022-08-16T18:24:09.033Z,4.75
2022-08-16T18:26:36.342Z,3.03
2022-08-16T18:29:04.025Z,2.63
2022-08-16T18:31:31.298Z,2.63
2022-08-16T18:33:58.185Z,5.03
2022-08-16T18:36:25.684Z,5.85
2022-08-16T18:38:53.606Z,2.83
2022-08-16T18:41:23.023Z,5.13
2022-08-16T18:44:22.885Z,4.38
2022-08-16T18:46:44.168Z,2.85
2022-08-16T18:49:14.927Z,2.88
2022-08-16T18:51:45.457Z,3.28
2022-08-16T18:54:16.279Z,4.78
2022-08-16T18:56:56.930Z,6.32
2022-08-16T18:59:28.116Z,2.78
2022-08-16T19:02:00.175Z,4.30
2022-08-16T19:04:55.532Z,3.92
2022-08-16T19:07:22.914Z,2.55
2022-08-16T19:09:57.517Z,2.92
2022-08-16T19:12:38.400Z,5.43
2022-08-16T19:15:19.381Z,6.00
2022-08-16T19:17:46.479Z,4.05
2022-08-16T19:20:18.187Z,4.47
2022-08-16T19:23:04.593Z,3.47
2022-08-16T19:25:49.193Z,3.72
2022-08-16T19:28:48.274Z,5.55
2022-08-16T19:31:24.525Z,6.72
2022-08-16T19:33:56.801Z,4.55
2022-08-16T19:36:35.462Z,3.65
2022-08-16T19:39:08.618Z,4.93
2022-08-16T19:41:38.487Z,4.53
2022-08-16T19:44:06.857Z,3.58
2022-08-16T19:46:34.445Z,4.07
2022-08-16T19:49:01.346Z,3.88
2022-08-16T19:51:28.231Z,4.65
2022-08-16T19:53:55.076Z,5.38
2022-08-16T19:56:24.561Z,7.20
2022-08-16T19:59:17.574Z,5.72
2022-08-16T20:01:42.366Z,3.60
2022-08-16T20:04:12.281Z,5.78
2022-08-16T20:06:40.560Z,4.60
2022-08-16T20:09:07.833Z,3.72
2022-08-16T20:11:35.514Z,4.78
2022-08-16T20:14:02.796Z,5.35
2022-08-16T20:16:29.863Z,6.40
2022-08-16T20:18:56.747Z,3.83
2022-08-16T20:21:24.205Z,4.40
2022-08-16T20:23:51.098Z,6.38
2022-08-16T20:26:18.710Z,7.82
2022-08-16T20:28:53.564Z,5.88
2022-08-16T20:31:22.807Z,4.72
2022-08-16T20:33:50.896Z,5.15
2022-08-16T20:36:17.716Z,3.92
2022-08-16T20:38:47.213Z,3.60
2022-08-16T20:41:16.067Z,4.43
2022-08-16T20:43:43.433Z,7.30
2022-08-16T20:46:10.643Z,4.03
2022-08-16T20:48:37.440Z,4.05
2022-08-16T20:51:06.678Z,6.15
2022-08-16T20:53:33.913Z,9.32
2022-08-16T20:56:00.681Z,4.30
2022-08-16T20:58:27.522Z,6.60
2022-08-16T21:00:54.411Z,5.47
2022-08-16T21:03:21.250Z,4.00
2022-08-16T21:05:48.029Z,4.05
2022-08-16T21:08:50.569Z,5.97
2022-08-16T21:11:05.433Z,4.10
2022-08-16T21:13:33.865Z,4.93
2022-08-16T21:16:02.498Z,4.00
2022-08-16T21:18:29.669Z,4.68
2022-08-16T21:20:56.597Z,6.88
2022-08-16T21:23:23.445Z,7.95
2022-08-16T21:25:59.122Z,8.85
2022-08-16T21:28:40.138Z,4.80
2022-08-16T21:31:15.301Z,5.70
2022-08-16T21:33:43.684Z,7.13
2022-08-16T21:36:11.769Z,6.90
2022-08-16T21:38:39.963Z,6.18
2022-08-16T21:41:08.744Z,5.35
2022-08-16T21:43:35.809Z,6.28
2022-08-16T21:46:04.561Z,6.40
2022-08-16T21:48:34.010Z,6.57
2022-08-16T21:51:11.341Z,7.13
2022-08-16T21:53:38.401Z,6.85
2022-08-16T21:56:06.901Z,7.05
2022-08-16T21:58:36.650Z,5.00
2022-08-16T22:01:04.249Z,7.30
2022-08-16T22:03:32.753Z,3.92
2022-08-16T22:06:12.964Z,4.95
2022-08-16T22:08:49.411Z,4.55
2022-08-16T22:11:23.801Z,7.00
2022-08-16T22:13:57.840Z,6.47
2022-08-16T22:16:33.638Z,6.28
2022-08-16T22:19:01.765Z,9.68
2022-08-16T22:21:29.896Z,4.90
2022-08-16T22:23:58.663Z,4.50
2022-08-16T22:26:33.833Z,4.07
2022-08-16T22:29:05.107Z,4.57
2022-08-16T22:31:32.960Z,4.95
2022-08-16T22:34:01.717Z,8.40
2022-08-16T22:36:30.482Z,8.02
2022-08-16T22:38:59.892Z,7.43
2022-08-16T22:41:32.171Z,5.07
2022-08-16T22:44:00.810Z,6.10
2022-08-16T22:46:27.700Z,4.75
2022-08-16T22:48:54.930Z,5.95
2022-08-16T22:51:24.813Z,5.75
2022-08-16T22:53:52.779Z,6.63
2022-08-16T22:56:20.093Z,5.90
2022-08-16T22:58:47.501Z,4.75
2022-08-16T23:01:16.810Z,6.72
2022-08-16T23:03:44.247Z,6.15
2022-08-16T23:06:13.674Z,4.70
2022-08-16T23:08:41.725Z,5.13
2022-08-16T23:11:12.727Z,7.30
2022-08-16T23:13:53.012Z,7.22
2022-08-16T23:16:33.459Z,7.38
2022-08-16T23:19:04.902Z,4.65
2022-08-16T23:21:32.783Z,5.65
2022-08-16T23:23:59.980Z,7.82
2022-08-16T23:26:46.564Z,6.72
2022-08-16T23:29:15.958Z,10.10
2022-08-16T23:31:54.412Z,4.57
2022-08-16T23:34:22.045Z,7.93
2022-08-16T23:36:48.861Z,5.85
2022-08-16T23:39:15.688Z,4.15
2022-08-16T23:41:43.775Z,10.02
2022-08-16T23:44:57.718Z,6.43
2022-08-16T23:46:57.377Z,4.57
2022-08-16T23:49:59.064Z,4.68
2022-08-16T23:52:11.361Z,5.53
2022-08-16T23:54:38.365Z,9.43
2022-08-16T23:57:05.364Z,11.45
2022-08-16T23:59:35.898Z,4.63
